Time;durP1;ratioP1;P1;durP2;ratioP2;P2;SDS_P1;SDS_P2;PMS_P1;PMS_P2;Temp;Humidity;BMP_temperature;BMP_pressure;BME280_temperature;BME280_humidity;BME280_pressure;Samples;Min_cycle;Max_cycle;Signal;HPM_P1;HPM_P2
2024/02/24 00:00:05;;;;;;;;;;;3.00;1.00;;;;;;5099483;28;20015;-81
2024/02/24 00:09:03;;;;;;;;;;;3.00;1.00;;;;;;5074118;28;19915;-81
2024/02/24 00:11:57;;;;;;;;;;;3.00;1.00;;;;;;5106662;28;19908;-82
2024/02/24 00:17:26;;;;;;;;;;;3.00;1.00;;;;;;5085189;28;19935;-81
2024/02/24 00:19:51;;;;;;;;;;;3.10;1.00;;;;;;5064499;28;20367;-81
2024/02/24 00:22:33;;;;;;;;;;;3.10;1.00;;;;;;5089161;28;20291;-81
2024/02/24 00:24:59;;;;;;;;;;;3.10;1.00;;;;;;5100230;28;20302;-81
2024/02/24 00:27:33;;;;;;;;;;;3.10;1.00;;;;;;5076269;28;19911;-81
2024/02/24 00:33:03;;;;;;;;;;;3.10;1.00;;;;;;5093133;28;19931;-82
2024/02/24 00:35:33;;;;;;;;;;;3.10;1.00;;;;;;5089180;28;19912;-81
2024/02/24 00:38:03;;;;;;;;;;;3.10;1.00;;;;;;5086727;28;19913;-82
2024/02/24 00:40:33;;;;;;;;;;;3.00;1.00;;;;;;5071229;28;20006;-81
2024/02/24 00:42:59;;;;;;;;;;;3.00;1.00;;;;;;5079946;28;20293;-81
2024/02/24 00:45:33;;;;;;;;;;;3.00;1.00;;;;;;5098720;28;19920;-81
2024/02/24 00:51:33;;;;;;;;;;;3.00;1.00;;;;;;5111255;28;20008;-81
2024/02/24 00:54:33;;;;;;;;;;;3.00;1.00;;;;;;5098291;28;19919;-82
2024/02/24 01:00:33;;;;;;;;;;;2.90;1.00;;;;;;5097009;28;19918;-81
2024/02/24 01:03:03;;;;;;;;;;;2.90;1.00;;;;;;5083903;28;20272;-81
2024/02/24 01:05:41;;;;;;;;;;;3.00;1.00;;;;;;5099452;28;19923;-76
2024/02/24 01:11:21;;;;;;;;;;;3.20;1.00;;;;;;5097957;28;20271;-76
2024/02/24 01:13:47;;;;;;;;;;;3.20;1.00;;;;;;5086508;28;19916;-76
2024/02/24 01:16:12;;;;;;;;;;;3.30;1.00;;;;;;5102178;28;19995;-76
2024/02/24 01:18:38;;;;;;;;;;;3.30;1.00;;;;;;5097863;28;19916;-76
2024/02/24 01:21:04;;;;;;;;;;;3.40;1.00;;;;;;5089605;28;19916;-82
2024/02/24 01:23:29;;;;;;;;;;;3.40;1.00;;;;;;5096187;28;19908;-81
2024/02/24 01:26:03;;;;;;;;;;;3.30;1.00;;;;;;5093966;28;19920;-81
2024/02/24 01:29:03;;;;;;;;;;;3.40;1.00;;;;;;5099469;28;19912;-82
2024/02/24 01:31:33;;;;;;;;;;;3.40;1.00;;;;;;5097236;28;19915;-81
2024/02/24 01:34:03;;;;;;;;;;;3.40;1.00;;;;;;5093148;28;20003;-81
2024/02/24 01:39:32;;;;;;;;;;;3.60;1.00;;;;;;5102449;28;19977;-81
2024/02/24 01:45:01;;;;;;;;;;;3.80;1.00;;;;;;5096946;28;20007;-81
2024/02/24 01:47:33;;;;;;;;;;;3.80;1.00;;;;;;5097098;28;19952;-82
2024/02/24 01:50:03;;;;;;;;;;;3.90;1.00;;;;;;5084867;28;19911;-76
2024/02/24 01:52:57;;;;;;;;;;;3.90;1.00;;;;;;5102670;28;20416;-76
2024/02/24 01:55:33;;;;;;;;;;;3.90;1.00;;;;;;5094451;28;19919;-76
2024/02/24 01:58:04;;;;;;;;;;;4.00;1.00;;;;;;5090742;28;19955;-79
2024/02/24 02:00:34;;;;;;;;;;;4.00;1.00;;;;;;5096707;28;20058;-76
2024/02/24 02:03:15;;;;;;;;;;;4.10;1.00;;;;;;5096916;28;19977;-76
2024/02/24 02:06:03;;;;;;;;;;;4.20;1.00;;;;;;5097185;28;20379;-81
2024/02/24 02:09:03;;;;;;;;;;;4.30;1.00;;;;;;5095647;28;19958;-82
2024/02/24 02:11:29;;;;;;;;;;;4.30;1.00;;;;;;5086495;28;19919;-81
2024/02/24 02:16:57;;;;;;;;;;;4.40;1.00;;;;;;5082548;28;19915;-81
2024/02/24 02:19:46;;;;;;;;;;;4.40;1.00;;;;;;5096724;28;19999;-81
2024/02/24 02:22:14;;;;;;;;;;;4.40;1.00;;;;;;5087223;28;19923;-76
2024/02/24 02:24:57;;;;;;;;;;;4.40;1.00;;;;;;5092696;28;19919;-77
2024/02/24 02:27:33;;;;;;;;;;;4.40;1.00;;;;;;5078231;28;20514;-76
2024/02/24 02:30:15;;;;;;;;;;;4.50;1.00;;;;;;5099313;28;20294;-76
2024/02/24 02:36:03;;;;;;;;;;;4.60;1.00;;;;;;5096211;28;20420;-82
2024/02/24 02:38:33;;;;;;;;;;;4.60;1.00;;;;;;5084554;28;19908;-81
2024/02/24 02:41:03;;;;;;;;;;;4.60;1.00;;;;;;5101475;28;19912;-81
2024/02/24 02:43:29;;;;;;;;;;;4.50;1.00;;;;;;5095899;28;19916;-81
2024/02/24 02:45:54;;;;;;;;;;;4.50;1.00;;;;;;5096066;28;19970;-82
2024/02/24 02:48:33;;;;;;;;;;;4.50;1.00;;;;;;5077908;28;19908;-82
2024/02/24 02:54:03;;;;;;;;;;;4.50;1.00;;;;;;5095678;28;20386;-83
2024/02/24 02:56:33;;;;;;;;;;;4.50;1.00;;;;;;5094724;28;19998;-82
2024/02/24 02:59:03;;;;;;;;;;;4.60;1.00;;;;;;5095810;28;19934;-82
2024/02/24 03:01:33;;;;;;;;;;;4.60;1.00;;;;;;5095911;28;19944;-82
2024/02/24 03:04:33;;;;;;;;;;;4.70;1.00;;;;;;5097851;28;19908;-82
2024/02/24 03:07:33;;;;;;;;;;;4.70;1.00;;;;;;5077825;28;19965;-77
2024/02/24 03:10:03;;;;;;;;;;;4.80;1.00;;;;;;5081694;28;19959;-76
2024/02/24 03:12:33;;;;;;;;;;;4.80;1.00;;;;;;5095129;28;19915;-76
2024/02/24 03:15:04;;;;;;;;;;;4.90;1.00;;;;;;5095456;28;19912;-77
2024/02/24 03:17:33;;;;;;;;;;;4.90;1.00;;;;;;5095205;28;19939;-76
2024/02/24 03:19:59;;;;;;;;;;;5.10;1.00;;;;;;5100304;28;19916;-76
2024/02/24 03:22:28;;;;;;;;;;;5.00;1.00;;;;;;5085176;28;20053;-76
2024/02/24 03:25:03;;;;;;;;;;;5.10;1.00;;;;;;5081505;28;19915;-76
2024/02/24 03:27:33;;;;;;;;;;;5.20;1.00;;;;;;5095259;28;19908;-77
2024/02/24 03:29:59;;;;;;;;;;;5.30;1.00;;;;;;5095295;28;19919;-77
2024/02/24 03:32:33;;;;;;;;;;;5.40;1.00;;;;;;5095183;28;19908;-76
2024/02/24 03:35:03;;;;;;;;;;;5.50;1.00;;;;;;5095255;28;19908;-76
2024/02/24 03:37:33;;;;;;;;;;;5.50;1.00;;;;;;5104172;28;19912;-82
2024/02/24 03:40:33;;;;;;;;;;;5.70;1.00;;;;;;5110125;28;20000;-81
2024/02/24 03:43:00;;;;;;;;;;;5.80;1.00;;;;;;5076584;28;19908;-82
2024/02/24 03:45:26;;;;;;;;;;;5.80;1.00;;;;;;5094242;28;20379;-81
2024/02/24 03:48:03;;;;;;;;;;;5.80;1.00;;;;;;5094799;28;19990;-81
2024/02/24 03:50:32;;;;;;;;;;;5.90;1.00;;;;;;5095128;28;19908;-78
2024/02/24 03:52:57;;;;;;;;;;;5.90;1.00;;;;;;5095344;28;19908;-75
2024/02/24 03:55:23;;;;;;;;;;;6.00;1.00;;;;;;5094942;28;19935;-75
2024/02/24 03:57:51;;;;;;;;;;;6.00;1.00;;;;;;5094491;28;19912;-75
2024/02/24 04:00:21;;;;;;;;;;;6.00;1.00;;;;;;5094546;28;19919;-75
2024/02/24 04:02:47;;;;;;;;;;;6.10;1.00;;;;;;5108107;28;19909;-75
2024/02/24 04:05:33;;;;;;;;;;;5.90;1.00;;;;;;5094416;28;20275;-75
2024/02/24 04:08:03;;;;;;;;;;;5.80;1.00;;;;;;5083121;28;19908;-81
2024/02/24 04:10:34;;;;;;;;;;;5.80;1.00;;;;;;5094326;28;20011;-81
2024/02/24 04:13:33;;;;;;;;;;;5.70;1.00;;;;;;5094444;28;19908;-81
2024/02/24 04:16:03;;;;;;;;;;;5.70;1.00;;;;;;5085765;28;19912;-81
2024/02/24 04:18:33;;;;;;;;;;;5.60;1.00;;;;;;5076069;28;19909;-81
2024/02/24 04:21:03;;;;;;;;;;;5.60;1.00;;;;;;5078299;28;20367;-76
2024/02/24 04:24:03;;;;;;;;;;;5.50;1.00;;;;;;5089805;28;19909;-75
2024/02/24 04:26:33;;;;;;;;;;;5.50;1.00;;;;;;5098505;28;19965;-75
2024/02/24 04:28:59;;;;;;;;;;;5.50;1.00;;;;;;5080946;28;19913;-75
2024/02/24 04:31:33;;;;;;;;;;;5.40;1.00;;;;;;5093864;28;19909;-75
2024/02/24 04:33:59;;;;;;;;;;;5.30;1.00;;;;;;5094275;28;19908;-75
2024/02/24 04:39:27;;;;;;;;;;;5.20;1.00;;;;;;5094123;28;20412;-81
2024/02/24 04:42:21;;;;;;;;;;;5.20;1.00;;;;;;5093525;28;19908;-81
2024/02/24 04:50:53;;;;;;;;;;;5.10;1.00;;;;;;5094005;28;19981;-81
2024/02/24 04:56:21;;;;;;;;;;;4.90;1.00;;;;;;5093908;28;19915;-81
2024/02/24 05:01:50;;;;;;;;;;;4.90;1.00;;;;;;5093890;28;20267;-81
2024/02/24 05:07:18;;;;;;;;;;;4.80;1.00;;;;;;5101831;28;19939;-75
2024/02/24 05:09:45;;;;;;;;;;;4.60;1.00;;;;;;5105655;28;20363;-75
2024/02/24 05:12:21;;;;;;;;;;;4.60;1.00;;;;;;5107325;28;20319;-76
2024/02/24 05:15:16;;;;;;;;;;;4.60;1.00;;;;;;5093725;28;19908;-77
2024/02/24 05:17:57;;;;;;;;;;;4.50;1.00;;;;;;5086090;28;19973;-76
2024/02/24 05:20:24;;;;;;;;;;;4.50;1.00;;;;;;5092140;28;19908;-76
2024/02/24 05:25:53;;;;;;;;;;;4.40;1.00;;;;;;5087740;28;19980;-75
2024/02/24 05:28:18;;;;;;;;;;;4.40;1.00;;;;;;5113698;28;20423;-76
2024/02/24 05:30:45;;;;;;;;;;;4.40;1.00;;;;;;5097453;28;19912;-76
2024/02/24 05:33:27;;;;;;;;;;;4.40;1.00;;;;;;5097378;28;20382;-76
2024/02/24 05:35:53;;;;;;;;;;;4.40;1.00;;;;;;5097074;28;19915;-75
2024/02/24 05:38:27;;;;;;;;;;;4.30;1.00;;;;;;5100652;28;19912;-76
2024/02/24 05:40:53;;;;;;;;;;;4.20;1.00;;;;;;5096622;28;19916;-75
2024/02/24 05:43:18;;;;;;;;;;;4.10;1.00;;;;;;5096624;28;19912;-75
2024/02/24 05:45:52;;;;;;;;;;;4.10;1.00;;;;;;5098766;28;19916;-75
2024/02/24 05:48:39;;;;;;;;;;;4.20;1.00;;;;;;5084615;28;19909;-76
2024/02/24 05:51:22;;;;;;;;;;;4.20;1.00;;;;;;5097950;28;19919;-75
2024/02/24 05:53:50;;;;;;;;;;;4.30;1.00;;;;;;5089061;28;20011;-75
2024/02/24 05:56:22;;;;;;;;;;;4.40;1.00;;;;;;5095018;28;19962;-78
2024/02/24 05:58:47;;;;;;;;;;;4.50;1.00;;;;;;5103952;28;19934;-75
2024/02/24 06:01:15;;;;;;;;;;;4.70;1.00;;;;;;5078154;28;19925;-76
2024/02/24 06:06:51;;;;;;;;;;;4.40;1.00;;;;;;5099496;28;20056;-76
2024/02/24 06:12:39;;;;;;;;;;;4.80;1.00;;;;;;5092637;28;20406;-83
2024/02/24 06:18:08;;;;;;;;;;;5.10;1.00;;;;;;5098414;28;19935;-81
2024/02/24 06:20:33;;;;;;;;;;;5.10;1.00;;;;;;5096469;28;20355;-79
2024/02/24 06:29:05;;;;;;;;;;;5.30;1.00;;;;;;5107336;28;19915;-81
2024/02/24 06:34:33;;;;;;;;;;;5.30;1.00;;;;;;5090157;28;19916;-80
2024/02/24 06:43:05;;;;;;;;;;;5.50;1.00;;;;;;5099200;28;19966;-80
2024/02/24 06:54:40;;;;;;;;;;;5.90;1.00;;;;;;5099707;28;20011;-80
2024/02/24 07:00:08;;;;;;;;;;;5.90;1.00;;;;;;5101744;28;19958;-80
2024/02/24 07:03:09;;;;;;;;;;;5.90;1.00;;;;;;5095313;28;19912;-80
2024/02/24 07:06:03;;;;;;;;;;;5.90;1.00;;;;;;5093686;28;19959;-77
2024/02/24 07:08:46;;;;;;;;;;;5.90;1.00;;;;;;5112484;28;19916;-77
2024/02/24 07:11:15;;;;;;;;;;;5.90;1.00;;;;;;5106819;28;19915;-76
2024/02/24 07:20:04;;;;;;;;;;;6.20;1.00;;;;;;5088453;28;19923;-77
2024/02/24 07:25:32;;;;;;;;;;;6.30;1.00;;;;;;5104935;28;19923;-81
2024/02/24 07:27:58;;;;;;;;;;;6.30;1.00;;;;;;5106793;28;19912;-86
2024/02/24 07:42:36;;;;;;;;;;;6.20;1.00;;;;;;5098780;28;19923;-81
2024/02/24 07:51:07;;;;;;;;;;;6.40;1.00;;;;;;5090668;28;19915;-81
2024/02/24 07:56:36;;;;;;;;;;;6.20;1.00;;;;;;5083343;28;19938;-80
2024/02/24 08:05:07;;;;;;;;;;;5.80;1.00;;;;;;5074459;28;19922;-80
2024/02/24 08:08:09;;;;;;;;;;;5.80;1.00;;;;;;5090815;28;20270;-80
2024/02/24 08:19:57;;;;;;;;;;;6.00;1.00;;;;;;5094010;28;20053;-75
2024/02/24 08:22:23;;;;;;;;;;;6.30;1.00;;;;;;5080265;28;19916;-75
2024/02/24 08:24:49;;;;;;;;;;;6.40;1.00;;;;;;5099336;28;19923;-79
2024/02/24 08:30:18;;;;;;;;;;;6.70;1.00;;;;;;5083606;28;19978;-82
2024/02/24 08:35:46;;;;;;;;;;;6.90;1.00;;;;;;5114933;28;19961;-87
2024/02/24 08:41:14;;;;;;;;;;;6.80;1.00;;;;;;5107456;28;19970;-81
2024/02/24 08:43:40;;;;;;;;;;;6.60;1.00;;;;;;5094042;28;19955;-82
2024/02/24 08:46:33;;;;;;;;;;;6.60;1.00;;;;;;5099777;28;19919;-83
2024/02/24 08:52:02;;;;;;;;;;;6.40;1.00;;;;;;5093846;28;19915;-83
2024/02/24 08:57:31;;;;;;;;;;;6.30;1.00;;;;;;5095002;28;19915;-89
2024/02/24 09:00:15;;;;;;;;;;;6.70;1.00;;;;;;5062821;28;19909;-79
2024/02/24 09:03:03;;;;;;;;;;;6.20;1.00;;;;;;5087110;28;20413;-78
2024/02/24 09:05:39;;;;;;;;;;;6.20;1.00;;;;;;5089103;28;19919;-78
2024/02/24 09:08:05;;;;;;;;;;;6.20;1.00;;;;;;5097203;28;19913;-79
2024/02/24 09:10:34;;;;;;;;;;;6.20;1.00;;;;;;5095679;28;19912;-79
2024/02/24 09:16:04;;;;;;;;;;;6.40;1.00;;;;;;5097382;28;19957;-78
2024/02/24 09:21:32;;;;;;;;;;;6.40;1.00;;;;;;5082321;28;19918;-78
2024/02/24 09:23:58;;;;;;;;;;;6.40;1.00;;;;;;5096990;28;19912;-78
2024/02/24 09:26:45;;;;;;;;;;;6.30;1.00;;;;;;5097329;28;20424;-80
2024/02/24 09:29:16;;;;;;;;;;;6.30;1.00;;;;;;5085993;28;19927;-78
2024/02/24 09:32:03;;;;;;;;;;;6.30;1.00;;;;;;5096260;28;19910;-78
2024/02/24 09:34:34;;;;;;;;;;;6.50;1.00;;;;;;5095816;28;19912;-80
2024/02/24 09:43:05;;;;;;;;;;;6.60;1.00;;;;;;5097461;28;19919;-79
2024/02/24 09:45:32;;;;;;;;;;;6.60;1.00;;;;;;5109472;28;19920;-80
2024/02/24 09:51:01;;;;;;;;;;;6.80;1.00;;;;;;5099017;28;19918;-80
2024/02/24 09:53:34;;;;;;;;;;;6.70;1.00;;;;;;5096577;28;20294;-79
2024/02/24 09:59:03;;;;;;;;;;;6.70;1.00;;;;;;5103905;28;19935;-78
2024/02/24 10:01:29;;;;;;;;;;;6.90;1.00;;;;;;5096196;28;19966;-79
2024/02/24 10:13:03;;;;;;;;;;;7.90;1.00;;;;;;5075850;28;19999;-79
2024/02/24 10:21:36;;;;;;;;;;;8.20;1.00;;;;;;5082332;28;19998;-78
2024/02/24 10:24:04;;;;;;;;;;;8.10;1.00;;;;;;5075556;28;19920;-79
2024/02/24 10:29:32;;;;;;;;;;;8.10;1.00;;;;;;5095634;28;20325;-79
2024/02/24 10:53:40;;;;;;;;;;;7.60;1.00;;;;;;5088516;28;19953;-79
2024/02/24 10:56:17;;;;;;;;;;;7.60;1.00;;;;;;5114031;28;19939;-79
2024/02/24 11:04:58;;;;;;;;;;;7.60;1.00;;;;;;5113901;28;19919;-78
2024/02/24 11:10:26;;;;;;;;;;;;;;;;;;5095334;28;19935;-79
2024/02/24 11:16:10;;;;;;;;;;;8.10;1.00;;;;;;5095002;28;19919;-77
2024/02/24 11:18:52;;;;;;;;;;;8.10;1.00;;;;;;5081782;28;20352;-76
2024/02/24 11:21:20;;;;;;;;;;;8.10;1.00;;;;;;5095404;28;19915;-77
2024/02/24 11:26:49;;;;;;;;;;;8.40;1.00;;;;;;5089692;28;19919;-77
2024/02/24 11:29:29;;;;;;;;;;;8.50;1.00;;;;;;5097459;28;19916;-75
2024/02/24 11:32:16;;;;;;;;;;;8.40;1.00;;;;;;5095391;28;19908;-77
2024/02/24 11:34:52;;;;;;;;;;;8.20;1.00;;;;;;5094995;28;20006;-74
2024/02/24 11:37:17;;;;;;;;;;;8.20;1.00;;;;;;5083339;28;19978;-77
2024/02/24 11:40:04;;;;;;;;;;;8.30;1.00;;;;;;5101315;28;19966;-77
2024/02/24 11:42:53;;;;;;;;;;;8.20;1.00;;;;;;5095249;28;19912;-77
2024/02/24 11:45:19;;;;;;;;;;;8.10;1.00;;;;;;5107601;28;19927;-77
2024/02/24 11:50:48;;;;;;;;;;;8.00;1.00;;;;;;5094645;28;19915;-78
2024/02/24 11:56:28;;;;;;;;;;;8.00;1.00;;;;;;5092529;28;20014;-75
2024/02/24 12:05:20;;;;;;;;;;;7.70;1.00;;;;;;5096419;28;20014;-78
2024/02/24 12:08:16;;;;;;;;;;;7.90;1.00;;;;;;5093672;28;19935;-81
2024/02/24 12:17:16;;;;;;;;;;;8.40;1.00;;;;;;5094443;28;19915;-83
2024/02/24 12:22:44;;;;;;;;;;;8.70;1.00;;;;;;5086404;28;19915;-84
2024/02/24 12:25:14;;;;;;;;;;;8.80;1.00;;;;;;5059571;28;19920;-84
2024/02/24 12:30:44;;;;;;;;;;;8.90;1.00;;;;;;5090442;28;19998;-83
2024/02/24 12:33:11;;;;;;;;;;;8.90;1.00;;;;;;5094366;28;19923;-82
2024/02/24 12:38:40;;;;;;;;;;;8.90;1.00;;;;;;5096857;28;19923;-84
2024/02/24 12:41:09;;;;;;;;;;;9.00;1.00;;;;;;5097737;28;19908;-84
2024/02/24 12:43:36;;;;;;;;;;;9.00;1.00;;;;;;5093901;28;20432;-83
2024/02/24 12:46:02;;;;;;;;;;;9.30;1.00;;;;;;5082535;28;19923;-83
2024/02/24 12:52:04;;;;;;;;;;;9.70;1.00;;;;;;5081688;28;19957;-83
2024/02/24 13:00:37;;;;;;;;;;;9.80;1.00;;;;;;5092765;28;20275;-77
2024/02/24 13:03:04;;;;;;;;;;;9.80;1.00;;;;;;5092147;28;19912;-74
2024/02/24 13:05:30;;;;;;;;;;;9.80;1.00;;;;;;5093150;28;20586;-77
2024/02/24 13:11:04;;;;;;;;;;;10.30;1.00;;;;;;5103343;28;19912;-73
2024/02/24 13:13:29;;;;;;;;;;;10.30;1.00;;;;;;5093750;28;20009;-74
2024/02/24 13:15:58;;;;;;;;;;;10.10;1.00;;;;;;5094396;28;19978;-74
2024/02/24 13:18:40;;;;;;;;;;;10.10;1.00;;;;;;5093622;28;19951;-75
2024/02/24 13:21:16;;;;;;;;;;;10.20;1.00;;;;;;5105277;28;20394;-75
2024/02/24 13:23:44;;;;;;;;;;;10.10;1.00;;;;;;5088952;28;19912;-76
2024/02/24 13:26:35;;;;;;;;;;;10.20;1.00;;;;;;5085461;28;19951;-76
2024/02/24 13:29:04;;;;;;;;;;;9.90;1.00;;;;;;5093488;28;19908;-75
2024/02/24 13:31:34;;;;;;;;;;;9.80;1.00;;;;;;5093366;28;19908;-75
2024/02/24 13:34:04;;;;;;;;;;;9.70;1.00;;;;;;5104875;28;19914;-75
2024/02/24 13:36:58;;;;;;;;;;;9.80;1.00;;;;;;5094682;28;20010;-75
2024/02/24 13:42:27;;;;;;;;;;;9.70;1.00;;;;;;5080719;28;19962;-75
2024/02/24 13:45:06;;;;;;;;;;;9.70;1.00;;;;;;5096575;28;20306;-76
2024/02/24 13:47:34;;;;;;;;;;;9.90;1.00;;;;;;5093840;28;20228;-75
2024/02/24 13:50:05;;;;;;;;;;;10.10;1.00;;;;;;5096502;28;19912;-75
2024/02/24 13:53:04;;;;;;;;;;;10.10;1.00;;;;;;5096918;28;20007;-78
2024/02/24 13:58:37;;;;;;;;;;;9.80;1.00;;;;;;5096483;28;20451;-77
2024/02/24 14:01:02;;;;;;;;;;;9.90;1.00;;;;;;5088899;28;19920;-76
2024/02/24 14:03:28;;;;;;;;;;;9.90;1.00;;;;;;5095774;28;19912;-76
2024/02/24 14:09:06;;;;;;;;;;;9.60;1.00;;;;;;5091775;28;19923;-77
2024/02/24 14:11:32;;;;;;;;;;;9.50;1.00;;;;;;5097782;28;19918;-76
2024/02/24 14:14:16;;;;;;;;;;;9.30;1.00;;;;;;5096508;28;19995;-77
2024/02/24 14:16:44;;;;;;;;;;;9.20;1.00;;;;;;5096603;28;19962;-76
2024/02/24 14:19:10;;;;;;;;;;;9.30;1.00;;;;;;5096200;28;20271;-75
2024/02/24 14:24:39;;;;;;;;;;;9.90;1.00;;;;;;5088236;28;20019;-75
2024/02/24 14:27:16;;;;;;;;;;;9.90;1.00;;;;;;5094159;28;20003;-75
2024/02/24 14:29:46;;;;;;;;;;;10.00;1.00;;;;;;5088512;28;19915;-74
2024/02/24 14:32:22;;;;;;;;;;;10.30;1.00;;;;;;5083599;28;19961;-76
2024/02/24 14:35:10;;;;;;;;;;;10.30;1.00;;;;;;5095810;28;19912;-77
2024/02/24 14:38:04;;;;;;;;;;;9.80;1.00;;;;;;5096097;28;19908;-77
2024/02/24 14:43:33;;;;;;;;;;;10.00;1.00;;;;;;5076512;28;19963;-76
2024/02/24 14:46:10;;;;;;;;;;;9.70;1.00;;;;;;5088905;28;20348;-76
2024/02/24 14:48:36;;;;;;;;;;;9.90;1.00;;;;;;5089211;28;19919;-73
2024/02/24 14:51:03;;;;;;;;;;;9.90;1.00;;;;;;5095963;28;19912;-73
2024/02/24 14:53:34;;;;;;;;;;;10.00;1.00;;;;;;5095880;28;19934;-76
2024/02/24 14:56:10;;;;;;;;;;;10.10;1.00;;;;;;5100656;28;20397;-75
2024/02/24 14:58:46;;;;;;;;;;;10.10;1.00;;;;;;5086757;28;19935;-76
2024/02/24 15:01:22;;;;;;;;;;;10.00;1.00;;;;;;5095487;28;19908;-77
2024/02/24 15:03:48;;;;;;;;;;;10.10;1.00;;;;;;5095599;28;19919;-75
2024/02/24 15:06:34;;;;;;;;;;;10.10;1.00;;;;;;5093514;28;19920;-77
2024/02/24 15:09:16;;;;;;;;;;;10.10;1.00;;;;;;5081861;28;19909;-77
2024/02/24 15:11:46;;;;;;;;;;;10.20;1.00;;;;;;5095195;28;20010;-76
2024/02/24 15:14:28;;;;;;;;;;;10.30;1.00;;;;;;5095130;28;19912;-78
2024/02/24 15:20:34;;;;;;;;;;;10.90;1.00;;;;;;5108534;28;20021;-78
2024/02/24 15:23:34;;;;;;;;;;;11.00;1.00;;;;;;5101743;28;19916;-75
2024/02/24 15:26:04;;;;;;;;;;;10.90;1.00;;;;;;5079429;28;19931;-75
2024/02/24 15:28:34;;;;;;;;;;;10.60;1.00;;;;;;5096106;28;19938;-74
2024/02/24 15:31:00;;;;;;;;;;;10.50;1.00;;;;;;5094354;28;19916;-77
2024/02/24 15:33:35;;;;;;;;;;;10.30;1.00;;;;;;5095276;28;19965;-77
2024/02/24 15:36:16;;;;;;;;;;;10.00;1.00;;;;;;5094798;28;19912;-76
2024/02/24 15:38:58;;;;;;;;;;;9.90;1.00;;;;;;5094707;28;19911;-77
2024/02/24 15:41:34;;;;;;;;;;;9.80;1.00;;;;;;5098076;28;19916;-76
2024/02/24 15:44:10;;;;;;;;;;;9.70;1.00;;;;;;5094817;28;19916;-76
2024/02/24 15:46:54;;;;;;;;;;;9.60;1.00;;;;;;5094559;28;19970;-76
2024/02/24 15:49:20;;;;;;;;;;;9.60;1.00;;;;;;5095362;28;19908;-75
2024/02/24 15:51:46;;;;;;;;;;;9.40;1.00;;;;;;5094767;28;19915;-75
2024/02/24 15:54:16;;;;;;;;;;;9.40;1.00;;;;;;5094949;28;20037;-75
2024/02/24 15:57:04;;;;;;;;;;;9.30;1.00;;;;;;5088824;28;19908;-75
2024/02/24 15:59:34;;;;;;;;;;;9.30;1.00;;;;;;5079018;28;19916;-75
2024/02/24 16:02:10;;;;;;;;;;;9.30;1.00;;;;;;5101634;28;19908;-76
2024/02/24 16:04:41;;;;;;;;;;;9.30;1.00;;;;;;5094923;28;20352;-75
2024/02/24 16:16:22;;;;;;;;;;;9.20;1.00;;;;;;5083475;28;19922;-75
2024/02/24 16:21:51;;;;;;;;;;;9.10;1.00;;;;;;5095324;28;19957;-77
2024/02/24 16:24:17;;;;;;;;;;;9.10;1.00;;;;;;5100525;28;20006;-77
2024/02/24 16:26:42;;;;;;;;;;;8.90;1.00;;;;;;5083607;28;19941;-77
2024/02/24 16:29:10;;;;;;;;;;;8.90;1.00;;;;;;5094355;28;20525;-77
2024/02/24 16:32:04;;;;;;;;;;;8.80;1.00;;;;;;5089346;28;19995;-77
2024/02/24 16:34:35;;;;;;;;;;;8.80;1.00;;;;;;5094696;28;19986;-76
2024/02/24 16:37:04;;;;;;;;;;;8.60;1.00;;;;;;5109231;28;19908;-76
2024/02/24 16:39:35;;;;;;;;;;;8.50;1.00;;;;;;5099405;28;19912;-76
2024/02/24 16:42:06;;;;;;;;;;;8.50;1.00;;;;;;5093941;28;19913;-75
2024/02/24 16:44:31;;;;;;;;;;;8.40;1.00;;;;;;5093577;28;19916;-76
2024/02/24 16:47:04;;;;;;;;;;;8.30;1.00;;;;;;5093917;28;19920;-76
2024/02/24 16:49:34;;;;;;;;;;;8.10;1.00;;;;;;5081043;28;19916;-76
2024/02/24 16:52:10;;;;;;;;;;;8.10;1.00;;;;;;5093934;28;19909;-76
2024/02/24 16:57:40;;;;;;;;;;;8.00;1.00;;;;;;5089874;28;20342;-76
2024/02/24 17:00:17;;;;;;;;;;;7.80;1.00;;;;;;5098918;28;19939;-76
2024/02/24 17:06:04;;;;;;;;;;;7.60;1.00;;;;;;5094834;28;19923;-76
2024/02/24 17:08:30;;;;;;;;;;;7.50;1.00;;;;;;5066020;28;19908;-77
2024/02/24 17:13:59;;;;;;;;;;;7.50;1.00;;;;;;5092496;28;19964;-77
2024/02/24 17:19:34;;;;;;;;;;;7.40;1.00;;;;;;5093926;28;19965;-77
2024/02/24 17:22:00;;;;;;;;;;;7.40;1.00;;;;;;5093780;28;19915;-77
2024/02/24 17:24:25;;;;;;;;;;;7.30;1.00;;;;;;5086220;28;19908;-75
2024/02/24 17:27:04;;;;;;;;;;;7.30;1.00;;;;;;5094868;28;19912;-76
2024/02/24 17:29:34;;;;;;;;;;;7.20;1.00;;;;;;5097525;28;19912;-76
2024/02/24 17:32:22;;;;;;;;;;;7.20;1.00;;;;;;5093235;28;19919;-75
2024/02/24 17:37:52;;;;;;;;;;;7.30;1.00;;;;;;5096746;28;19919;-76
2024/02/24 17:40:35;;;;;;;;;;;7.20;1.00;;;;;;5083980;28;20000;-76
2024/02/24 17:43:00;;;;;;;;;;;7.20;1.00;;;;;;5088396;28;19913;-76
2024/02/24 17:45:58;;;;;;;;;;;7.10;1.00;;;;;;5097168;28;19923;-76
2024/02/24 17:54:35;;;;;;;;;;;6.80;1.00;;;;;;5085065;28;19958;-77
2024/02/24 17:57:17;;;;;;;;;;;6.70;1.00;;;;;;5097080;28;20364;-77
2024/02/24 18:05:48;;;;;;;;;;;6.30;1.00;;;;;;5095689;28;19966;-77
2024/02/24 18:08:28;;;;;;;;;;;6.20;1.00;;;;;;5092458;28;20516;-76
2024/02/24 18:11:28;;;;;;;;;;;6.10;1.00;;;;;;5117167;28;19911;-76
2024/02/24 18:20:28;;;;;;;;;;;5.90;1.00;;;;;;5096799;28;19963;-77
2024/02/24 18:22:54;;;;;;;;;;;5.80;1.00;;;;;;5090069;28;19908;-77
2024/02/24 18:28:23;;;;;;;;;;;5.70;1.00;;;;;;5094819;28;20374;-76
2024/02/24 18:30:58;;;;;;;;;;;5.60;1.00;;;;;;5096411;28;19908;-77
2024/02/24 18:33:46;;;;;;;;;;;5.60;1.00;;;;;;5095955;28;19914;-77
2024/02/24 18:36:30;;;;;;;;;;;5.50;1.00;;;;;;5096630;28;19908;-76
2024/02/24 18:38:56;;;;;;;;;;;5.40;1.00;;;;;;5095537;28;20419;-76
2024/02/24 18:41:22;;;;;;;;;;;5.40;1.00;;;;;;5096036;28;19989;-76
2024/02/24 18:43:48;;;;;;;;;;;5.30;1.00;;;;;;5095489;28;19916;-77
2024/02/24 18:46:14;;;;;;;;;;;5.30;1.00;;;;;;5104527;28;19931;-76
2024/02/24 18:54:47;;;;;;;;;;;4.90;1.00;;;;;;5079121;28;19914;-76
2024/02/24 18:57:34;;;;;;;;;;;4.90;1.00;;;;;;5095960;28;19909;-76
2024/02/24 19:00:28;;;;;;;;;;;4.80;1.00;;;;;;5095937;28;19908;-76
2024/02/24 19:02:58;;;;;;;;;;;4.70;1.00;;;;;;5091228;28;19913;-76
2024/02/24 19:05:30;;;;;;;;;;;4.70;1.00;;;;;;5095655;28;20355;-76
2024/02/24 19:08:28;;;;;;;;;;;4.60;1.00;;;;;;5095650;28;19908;-76
2024/02/24 19:10:58;;;;;;;;;;;4.60;1.00;;;;;;5095759;28;19908;-76
2024/02/24 19:13:34;;;;;;;;;;;4.50;1.00;;;;;;5095528;28;20397;-77
2024/02/24 19:16:23;;;;;;;;;;;4.40;1.00;;;;;;5095415;28;20274;-76
2024/02/24 19:18:58;;;;;;;;;;;4.40;1.00;;;;;;5077134;28;19912;-76
2024/02/24 19:21:58;;;;;;;;;;;4.30;1.00;;;;;;5095640;28;20378;-76
2024/02/24 19:24:29;;;;;;;;;;;4.30;1.00;;;;;;5094842;28;19908;-76
2024/02/24 19:26:58;;;;;;;;;;;4.10;1.00;;;;;;5081124;28;20014;-77
2024/02/24 19:29:29;;;;;;;;;;;4.10;1.00;;;;;;5103394;28;19908;-77
2024/02/24 19:32:28;;;;;;;;;;;4.00;1.00;;;;;;5095960;28;20313;-77
2024/02/24 19:34:58;;;;;;;;;;;3.90;1.00;;;;;;5095561;28;19947;-77
2024/02/24 19:37:58;;;;;;;;;;;3.80;1.00;;;;;;5083151;28;19916;-76
2024/02/24 19:43:28;;;;;;;;;;;3.70;1.00;;;;;;5094578;28;20322;-78
2024/02/24 19:46:28;;;;;;;;;;;3.70;1.00;;;;;;5094938;28;19958;-77
2024/02/24 19:49:28;;;;;;;;;;;3.70;1.00;;;;;;5084738;28;19915;-77
2024/02/24 19:51:59;;;;;;;;;;;3.70;1.00;;;;;;5094346;28;19952;-77
2024/02/24 19:54:28;;;;;;;;;;;3.80;1.00;;;;;;5094725;28;19912;-77
2024/02/24 19:59:58;;;;;;;;;;;3.80;1.00;;;;;;5094425;28;19927;-77
2024/02/24 20:02:58;;;;;;;;;;;3.90;1.00;;;;;;5089886;28;19987;-77
2024/02/24 20:05:34;;;;;;;;;;;4.00;1.00;;;;;;5094607;28;19916;-77
2024/02/24 20:11:03;;;;;;;;;;;4.00;1.00;;;;;;5094338;28;19958;-77
2024/02/24 20:13:47;;;;;;;;;;;4.10;1.00;;;;;;5094476;28;19912;-78
2024/02/24 20:16:14;;;;;;;;;;;4.10;1.00;;;;;;5090451;28;19911;-77
2024/02/24 20:22:01;;;;;;;;;;;4.20;1.00;;;;;;5111079;28;19967;-77
2024/02/24 20:24:58;;;;;;;;;;;4.30;1.00;;;;;;5082386;28;19914;-77
2024/02/24 20:27:59;;;;;;;;;;;4.30;1.00;;;;;;5080973;28;20011;-77
2024/02/24 20:30:28;;;;;;;;;;;4.40;1.00;;;;;;5094238;28;19920;-77
2024/02/24 20:33:28;;;;;;;;;;;4.30;1.00;;;;;;5087393;28;19950;-77
2024/02/24 20:35:58;;;;;;;;;;;4.20;1.00;;;;;;5082194;28;19912;-77
2024/02/24 20:38:58;;;;;;;;;;;4.20;1.00;;;;;;5093938;28;19946;-77
2024/02/24 20:41:47;;;;;;;;;;;4.10;1.00;;;;;;5094079;28;19908;-77
2024/02/24 20:47:22;;;;;;;;;;;3.70;1.00;;;;;;5073686;28;19927;-78
2024/02/24 20:52:51;;;;;;;;;;;3.50;1.00;;;;;;5092776;28;19915;-78
2024/02/24 20:55:29;;;;;;;;;;;3.40;1.00;;;;;;5094133;28;19920;-78
2024/02/24 20:58:30;;;;;;;;;;;3.40;1.00;;;;;;5095467;28;19915;-77
2024/02/24 21:00:58;;;;;;;;;;;3.30;1.00;;;;;;5098155;28;20327;-77
2024/02/24 21:03:58;;;;;;;;;;;3.10;1.00;;;;;;5089949;28;19909;-77
2024/02/24 21:06:28;;;;;;;;;;;3.10;1.00;;;;;;5095636;28;19912;-77
2024/02/24 21:12:17;;;;;;;;;;;3.00;1.00;;;;;;5097866;28;19918;-78
2024/02/24 21:17:59;;;;;;;;;;;2.90;1.00;;;;;;5097215;28;19938;-77
2024/02/24 21:20:41;;;;;;;;;;;2.90;1.00;;;;;;5095510;28;19912;-77
2024/02/24 21:23:23;;;;;;;;;;;2.80;1.00;;;;;;5101528;28;20220;-77
2024/02/24 21:26:04;;;;;;;;;;;2.80;1.00;;;;;;5084388;28;19965;-77
2024/02/24 21:28:29;;;;;;;;;;;2.70;1.00;;;;;;5096424;28;19920;-77
2024/02/24 21:31:28;;;;;;;;;;;2.70;1.00;;;;;;5097763;28;19914;-77
2024/02/24 21:34:11;;;;;;;;;;;2.50;1.00;;;;;;5096893;28;19908;-77